My Meet Scores
Kaylin Leifert, American Gymnastics Training Center - MyMeetScores.com
Top100 | Top Teams | Upcoming Meets | Completed Meets | Latest | Add Scores | Help| Support | Bookmark and Share

Kaylin Leifert, American Gymnastics Training Center
Personal Bests
LevelVault BarsBeamFloorAA
XB0.0000.000 0.0009.0259.025
XG9.4509.475 9.7259.65037.525
XP9.4009.075 9.5259.65036.950
XS9.6009.450 9.5009.42537.775
Scores on America's Top 100as of 01.27.2020
Year Level Vault Bars Beam Floor AA
2020 XP9.525

Click here to view our exclusive Top 100 Collection
Meet Scores
Date Meet Team Session Level Division Vault Bars Beam Floor AA
2020-01-10 Little Boston Invitational American Gymnastics Training Center D11 XP SR 9.000 2 9.000 2 9.525 1 9.325 1 36.850 1
2019-04-27 Xcel Gold, Platinum, Diamond State Championsh American Gymnastics Training Center 7 XP Sr B 9.300 18T 9.050 5T 9.000 31T 9.300 8T 36.650 9
2019-02-22 Pink Invitational ~ Gymnasts Unite American Gymnastics Training Center FF2 XP 15 yrs. 9.300 2 9.075 5 9.325 3T 9.250 3 36.950 3
2019-02-16 Chelsea Piers Winter Challenge American Gymnastics Training Center F6 XP Middle 8.775 6T 9.050 3 9.000 2 9.350 3T 36.175 2
2019-01-25 Kinetic Kids Invitational 2019 CT-Unattached 4 XP Sr A 9.125 2 8.600 2 9.500 1 9.125 2 36.350 2
2019-01-18 22nd Annual Star Struck Invitational American Gymnastics Training Center 4D XP Sr A 9.400 1 8.500 8T 8.950 6 8.850 12 35.700 9
2018-12-08 American Gymnastics Invitational American Gymnastics Training Center 3 XP Senior 9.250 1 8.150 6T 8.550 4 9.325 2 35.275 5
2018-11-17 2018 Connecticut Judge's Cup American Gymnastics Training Center 9 XP 13-14 yrs. 9.000 3T 8.850 24T 9.175 7 9.200 5 36.225 4T
2018-11-02 Muriel Grossfeld Invitational American Gymnastics Training Center 3 XP Senior 9.250 1 9.075 1 9.100 1 8.650 6T 36.075 1
2018-04-21 2018 Connecticut XG, XP, XD State Championships American Gymnastics Training Center 6 XP Jr. E 9.200 5T 8.825 21T 8.700 33 9.650 2T 36.375 14
2018-02-16 Chelsea Piers Winter Challenge American Gymnastics Training Center C-5 XP JR B 9.050 3T 8.250 6T 9.025 2 9.400 2 35.725 2
2018-01-26 2018 American Invitational American Gymnastics Training Center 4B XP Middle 8.825 8 7.900 13 8.600 11T 9.000 11T 34.325 13
2017-05-20 2017 Region 6 Xcel Championships American Gymnastics Training Center 3 XG JR 9.325 2T 9.200 6T 8.800 16 9.575 3T 36.900 6
2017-04-29 Xcel Gold, Platinum, Diamond State Championships American Gymnastics Training Center 7 XG Jr. E 9.350 1 9.075 4 9.725 1 9.375 3 37.525 1
2017-03-02 2017 Holiday Costume Cup American Gymnastics Training Center 5 XG Sr A 8.700 4T 9.475 2 9.400 1 9.575 2 37.150 1
2017-02-24 Pink Invitational - Gymnasts Unite American Gymnastics Training Center SD2 XG 13 yrs. 9.000 4T 9.125 3 9.500 2 9.325 4 36.950 2
2017-02-10 Team Challenge 2017 American Gymnastics Training Center 09B XG Junior 9.050 2 9.450 3 9.350 1 9.650 1 37.500 1
2017-01-27 24th Annual American Invitational American Gymnastics Training Center 3A XG Junior 8.750 13T 9.000 7T 8.300 17T 9.550 3 35.600 10
2017-01-13 20th Annual Star Struck Invitational American Gymnastics Training Center 3D XG Sr A 9.050 5 9.400 2 9.450 1 9.300 2T 37.200 1
2016-11-18 2016 Muriel Grossfeld Invitational American Gymnastics Training Center 2 XG Sr A 9.450 1 8.650 4 9.000 3 9.400 1 36.500 1
2016-05-21 2016 Region 6 Xcel Championships American Gymnastics Training Center 2 XS JR 9.550 3 9.250 10 9.350 4* 9.375 8* 37.525 3T
2016-04-30 2016 Connecticut XS State Championships American Gymnastics Training Center All XS SrA 9.450 1 9.400 2T 9.500 5T 9.425 1 37.775 1
2016-02-13 Chelsea Piers Winter Challenge American Gymnastics Training Center F1 XS JR A 9.250 3 9.175 2T 9.375 5 9.250 2 37.050 1
2016-02-05 Lets Make A Deal American Gymnastics Training Center 9 XS Dime 9.300 7T 9.350 7T 9.300 6T 9.250 11T 37.200 6
2016-01-28 2016 American Invitational American Gymnastics Training Center 8A XS Junior 9.600 2 9.450 2 9.300 7T 9.350 8 37.700 3
2015-03-05 Holiday Costume Cup 2015 American Gymnastics Training Center 6 XB Older 0.000 15 0.000 15 0.000 15 9.025 5 9.025 15
Get your scores on
a t-shirt, pin, or hoodie

www.lazysuits.com